MAC386 LEMG-GMMN
Flight info
| Callsign | MAC386 |
|---|---|
| Flight time | 0h 54m |
| Altitude | 35000 |
| Route | PIMOS N869 GALTO UB11 TUSOR |
| Aircraft | A320/M-SDE3FGHIRWY/LB1 |
Departure
| Time | 2026-05-07 20:04 |
|---|---|
| Airport | Málaga-Costa del Sol Airport (LEMG) |
Arrival
| Time | 2026-05-07 20:59 |
|---|---|
| Airport | Mohammed V International Airport (GMMN) |
| Time | Latitude | Longitude | Altitude | Speed | Heading |
|---|---|---|---|---|---|
| 2026-05-07 20:01 | 36.68082 | -4.50187 | 42 ft | 0 kts | 311° |
| 2026-05-07 20:01 | 36.68093 | -4.50203 | 41 ft | 10 kts | 311° |
| 2026-05-07 20:02 | 36.68112 | -4.50292 | 42 ft | 10 kts | 262° |
| 2026-05-07 20:02 | 36.68116 | -4.50373 | 42 ft | 8 kts | 262° |
| 2026-05-07 20:02 | 36.68101 | -4.50434 | 43 ft | 6 kts | 251° |
| 2026-05-07 20:02 | 36.68085 | -4.50480 | 44 ft | 6 kts | 242° |
| 2026-05-07 20:03 | 36.68067 | -4.50501 | 47 ft | 5 kts | 201° |
| 2026-05-07 20:03 | 36.68054 | -4.50501 | 48 ft | 0 kts | 178° |
| 2026-05-07 20:03 | 36.68010 | -4.50485 | 51 ft | 11 kts | 163° |
| 2026-05-07 20:03 | 36.67934 | -4.50453 | 50 ft | 13 kts | 159° |
| 2026-05-07 20:04 | 36.67839 | -4.50390 | 54 ft | 26 kts | 140° |
| 2026-05-07 20:04 | 36.67545 | -4.49985 | 52 ft | 98 kts | 131° |
| 2026-05-07 20:04 | 36.66960 | -4.49167 | 50 ft | 152 kts | 131° |
| 2026-05-07 20:04 | 36.66257 | -4.48192 | 697 ft | 149 kts | 129° |
| 2026-05-07 20:05 | 36.65536 | -4.47183 | 1192 ft | 165 kts | 133° |
| 2026-05-07 20:05 | 36.64718 | -4.46067 | 1628 ft | 185 kts | 134° |
| 2026-05-07 20:05 | 36.63792 | -4.44817 | 1978 ft | 209 kts | 134° |
| 2026-05-07 20:05 | 36.62736 | -4.43407 | 2381 ft | 234 kts | 136° |
| 2026-05-07 20:06 | 36.61386 | -4.42356 | 3192 ft | 235 kts | 170° |
| 2026-05-07 20:06 | 36.59755 | -4.42492 | 4061 ft | 235 kts | 199° |
| 2026-05-07 20:06 | 36.58251 | -4.43233 | 4934 ft | 237 kts | 206° |
| 2026-05-07 20:06 | 36.56743 | -4.44104 | 5768 ft | 241 kts | 205° |
| 2026-05-07 20:07 | 36.55199 | -4.44945 | 6598 ft | 243 kts | 202° |
| 2026-05-07 20:07 | 36.53674 | -4.45853 | 7439 ft | 244 kts | 214° |
| 2026-05-07 20:07 | 36.52340 | -4.47249 | 7983 ft | 263 kts | 226° |
| 2026-05-07 20:07 | 36.50997 | -4.48896 | 8568 ft | 276 kts | 224° |
| 2026-05-07 20:08 | 36.49585 | -4.50536 | 9441 ft | 279 kts | 223° |
| 2026-05-07 20:08 | 36.48142 | -4.52172 | 10245 ft | 286 kts | 222° |
| 2026-05-07 20:08 | 36.46609 | -4.53896 | 10521 ft | 309 kts | 222° |
| 2026-05-07 20:08 | 36.44951 | -4.55759 | 10747 ft | 333 kts | 222° |
| 2026-05-07 20:09 | 36.43177 | -4.57754 | 10898 ft | 356 kts | 222° |
| 2026-05-07 20:09 | 36.41288 | -4.59881 | 11110 ft | 374 kts | 222° |
| 2026-05-07 20:09 | 36.39344 | -4.62072 | 11695 ft | 379 kts | 222° |
| 2026-05-07 20:10 | 36.35409 | -4.66502 | 13020 ft | 385 kts | 222° |
| 2026-05-07 20:10 | 36.33419 | -4.68741 | 13674 ft | 387 kts | 222° |
| 2026-05-07 20:10 | 36.31414 | -4.70991 | 14259 ft | 390 kts | 222° |
| 2026-05-07 20:10 | 36.29397 | -4.73253 | 14807 ft | 392 kts | 222° |
| 2026-05-07 20:11 | 36.27368 | -4.75531 | 15364 ft | 395 kts | 223° |
| 2026-05-07 20:11 | 36.25327 | -4.77821 | 15911 ft | 397 kts | 223° |
| 2026-05-07 20:11 | 36.23264 | -4.80134 | 16447 ft | 400 kts | 223° |
| 2026-05-07 20:11 | 36.21197 | -4.82448 | 16977 ft | 402 kts | 223° |
| 2026-05-07 20:12 | 36.19115 | -4.84777 | 17487 ft | 405 kts | 223° |
| 2026-05-07 20:12 | 36.17022 | -4.87119 | 18003 ft | 407 kts | 223° |
| 2026-05-07 20:12 | 36.14869 | -4.89410 | 18473 ft | 410 kts | 218° |
| 2026-05-07 20:12 | 36.12483 | -4.91368 | 18908 ft | 413 kts | 214° |
| 2026-05-07 20:13 | 36.10056 | -4.93285 | 19344 ft | 414 kts | 214° |
| 2026-05-07 20:13 | 36.07624 | -4.95208 | 19780 ft | 416 kts | 215° |
| 2026-05-07 20:13 | 36.05185 | -4.97140 | 20228 ft | 417 kts | 214° |
| 2026-05-07 20:13 | 36.02742 | -4.99077 | 20651 ft | 418 kts | 215° |
| 2026-05-07 20:14 | 36.00290 | -5.01017 | 21074 ft | 419 kts | 215° |
| 2026-05-07 20:14 | 35.97824 | -5.02961 | 21478 ft | 421 kts | 215° |
| 2026-05-07 20:14 | 35.95373 | -5.04891 | 22269 ft | 411 kts | 215° |
| 2026-05-07 20:14 | 35.92990 | -5.06765 | 23203 ft | 403 kts | 215° |
| 2026-05-07 20:15 | 35.90629 | -5.08618 | 23754 ft | 402 kts | 215° |
| 2026-05-07 20:15 | 35.88267 | -5.10472 | 24149 ft | 403 kts | 215° |
| 2026-05-07 20:15 | 35.85898 | -5.12331 | 24515 ft | 405 kts | 215° |
| 2026-05-07 20:15 | 35.83516 | -5.14204 | 24866 ft | 406 kts | 216° |
| 2026-05-07 20:16 | 35.81124 | -5.16057 | 25351 ft | 405 kts | 215° |
| 2026-05-07 20:16 | 35.78721 | -5.17863 | 25833 ft | 404 kts | 214° |
| 2026-05-07 20:16 | 35.76311 | -5.19642 | 26311 ft | 404 kts | 214° |
| 2026-05-07 20:16 | 35.73901 | -5.21410 | 26795 ft | 403 kts | 214° |
| 2026-05-07 20:17 | 35.71500 | -5.23174 | 27279 ft | 402 kts | 214° |
| 2026-05-07 20:17 | 35.69132 | -5.24918 | 27759 ft | 401 kts | 215° |
| 2026-05-07 20:17 | 35.66745 | -5.26680 | 28253 ft | 400 kts | 215° |
| 2026-05-07 20:17 | 35.64943 | -5.28014 | 28627 ft | 399 kts | 215° |
| 2026-05-07 20:18 | 35.62565 | -5.29780 | 29115 ft | 398 kts | 215° |
| 2026-05-07 20:18 | 35.60198 | -5.31543 | 29546 ft | 399 kts | 216° |
| 2026-05-07 20:18 | 35.57852 | -5.33404 | 29694 ft | 404 kts | 218° |
| 2026-05-07 20:18 | 35.55539 | -5.35408 | 29838 ft | 409 kts | 220° |
| 2026-05-07 20:19 | 35.53236 | -5.37504 | 29978 ft | 414 kts | 220° |
| 2026-05-07 20:19 | 35.50919 | -5.39645 | 30102 ft | 419 kts | 220° |
| 2026-05-07 20:19 | 35.48578 | -5.41795 | 30219 ft | 425 kts | 220° |
| 2026-05-07 20:19 | 35.46186 | -5.43965 | 30340 ft | 429 kts | 220° |
| 2026-05-07 20:20 | 35.44586 | -5.45401 | 30447 ft | 432 kts | 219° |
| 2026-05-07 20:20 | 35.42148 | -5.47566 | 30692 ft | 433 kts | 219° |
| 2026-05-07 20:20 | 35.39701 | -5.49720 | 30898 ft | 432 kts | 219° |
| 2026-05-07 20:21 | 35.34821 | -5.53999 | 30944 ft | 431 kts | 219° |
| 2026-05-07 20:21 | 35.29171 | -5.58973 | 30952 ft | 430 kts | 219° |
| 2026-05-07 20:22 | 35.25109 | -5.62561 | 30951 ft | 428 kts | 219° |
| 2026-05-07 20:22 | 35.20307 | -5.66798 | 30959 ft | 425 kts | 219° |
| 2026-05-07 20:23 | 35.15515 | -5.71012 | 30958 ft | 424 kts | 219° |
| 2026-05-07 20:23 | 35.10716 | -5.75217 | 30929 ft | 424 kts | 219° |
| 2026-05-07 20:24 | 35.05930 | -5.79403 | 30959 ft | 423 kts | 219° |
| 2026-05-07 20:24 | 35.01151 | -5.83587 | 30964 ft | 423 kts | 219° |
| 2026-05-07 20:25 | 34.96392 | -5.87745 | 30958 ft | 423 kts | 219° |
| 2026-05-07 20:25 | 34.91605 | -5.91921 | 30960 ft | 423 kts | 219° |
| 2026-05-07 20:26 | 34.86870 | -5.96266 | 30958 ft | 422 kts | 222° |
| 2026-05-07 20:26 | 34.82356 | -6.00828 | 30646 ft | 422 kts | 223° |
| 2026-05-07 20:26 | 34.80143 | -6.03092 | 30408 ft | 422 kts | 223° |
| 2026-05-07 20:27 | 34.77890 | -6.05378 | 30172 ft | 423 kts | 223° |
| 2026-05-07 20:27 | 34.75617 | -6.07662 | 29922 ft | 424 kts | 222° |
| 2026-05-07 20:27 | 34.73329 | -6.09938 | 29647 ft | 425 kts | 222° |
| 2026-05-07 20:27 | 34.71038 | -6.12201 | 29361 ft | 426 kts | 222° |
| 2026-05-07 20:28 | 34.68731 | -6.14469 | 29100 ft | 426 kts | 221° |
| 2026-05-07 20:28 | 34.66426 | -6.16732 | 28824 ft | 427 kts | 221° |
| 2026-05-07 20:28 | 34.64103 | -6.19015 | 28562 ft | 428 kts | 221° |
| 2026-05-07 20:28 | 34.61796 | -6.21283 | 28297 ft | 429 kts | 221° |
| 2026-05-07 20:29 | 34.59473 | -6.23564 | 28039 ft | 429 kts | 221° |
| 2026-05-07 20:29 | 34.57157 | -6.25843 | 27749 ft | 430 kts | 221° |
| 2026-05-07 20:29 | 34.54831 | -6.28131 | 27493 ft | 430 kts | 221° |
| 2026-05-07 20:29 | 34.52504 | -6.30420 | 27239 ft | 431 kts | 221° |
| 2026-05-07 20:30 | 34.50046 | -6.32498 | 26984 ft | 434 kts | 213° |
| 2026-05-07 20:30 | 34.47277 | -6.34021 | 26735 ft | 440 kts | 202° |
| 2026-05-07 20:30 | 34.44327 | -6.35085 | 26487 ft | 442 kts | 200° |
| 2026-05-07 20:30 | 34.41374 | -6.36120 | 26247 ft | 443 kts | 200° |
| 2026-05-07 20:31 | 34.38405 | -6.37159 | 25998 ft | 444 kts | 200° |
| 2026-05-07 20:31 | 34.35443 | -6.38200 | 25756 ft | 445 kts | 200° |
| 2026-05-07 20:31 | 34.32468 | -6.39245 | 25519 ft | 445 kts | 200° |
| 2026-05-07 20:31 | 34.29489 | -6.40291 | 25268 ft | 446 kts | 200° |
| 2026-05-07 20:32 | 34.26506 | -6.41337 | 25030 ft | 446 kts | 200° |
| 2026-05-07 20:32 | 34.23520 | -6.42384 | 24795 ft | 447 kts | 200° |
| 2026-05-07 20:32 | 34.20526 | -6.43429 | 24562 ft | 447 kts | 200° |
| 2026-05-07 20:32 | 34.17535 | -6.44471 | 24251 ft | 447 kts | 200° |
| 2026-05-07 20:33 | 34.14570 | -6.45502 | 23933 ft | 437 kts | 200° |
| 2026-05-07 20:33 | 34.11720 | -6.46487 | 23790 ft | 415 kts | 200° |
| 2026-05-07 20:33 | 34.09007 | -6.47422 | 23701 ft | 396 kts | 200° |
| 2026-05-07 20:33 | 34.06445 | -6.48308 | 23588 ft | 379 kts | 200° |
| 2026-05-07 20:34 | 34.03966 | -6.49169 | 23441 ft | 363 kts | 201° |
| 2026-05-07 20:34 | 34.01589 | -6.49995 | 23313 ft | 348 kts | 201° |
| 2026-05-07 20:34 | 33.99340 | -6.50885 | 23174 ft | 332 kts | 207° |
| 2026-05-07 20:34 | 33.97322 | -6.52078 | 23039 ft | 316 kts | 214° |
| 2026-05-07 20:35 | 33.95542 | -6.53517 | 22906 ft | 301 kts | 220° |
| 2026-05-07 20:35 | 33.93999 | -6.55141 | 22772 ft | 288 kts | 226° |
| 2026-05-07 20:35 | 33.92596 | -6.56806 | 22649 ft | 278 kts | 226° |
| 2026-05-07 20:35 | 33.91252 | -6.58381 | 22426 ft | 263 kts | 226° |
| 2026-05-07 20:36 | 33.89960 | -6.59888 | 21949 ft | 257 kts | 226° |
| 2026-05-07 20:36 | 33.88686 | -6.61375 | 21414 ft | 254 kts | 226° |
| 2026-05-07 20:36 | 33.87425 | -6.62852 | 20856 ft | 252 kts | 226° |
| 2026-05-07 20:36 | 33.86169 | -6.64322 | 20352 ft | 252 kts | 226° |
| 2026-05-07 20:37 | 33.84928 | -6.65776 | 20181 ft | 245 kts | 226° |
| 2026-05-07 20:37 | 33.83721 | -6.67189 | 20009 ft | 240 kts | 226° |
| 2026-05-07 20:37 | 33.82532 | -6.68580 | 19742 ft | 237 kts | 226° |
| 2026-05-07 20:37 | 33.81350 | -6.69963 | 19443 ft | 237 kts | 226° |
| 2026-05-07 20:38 | 33.80644 | -6.70790 | 19279 ft | 236 kts | 226° |
| 2026-05-07 20:38 | 33.79692 | -6.71900 | 19050 ft | 236 kts | 226° |
| 2026-05-07 20:38 | 33.78597 | -6.73181 | 18782 ft | 235 kts | 226° |
| 2026-05-07 20:38 | 33.77426 | -6.74553 | 18501 ft | 235 kts | 226° |
| 2026-05-07 20:39 | 33.76255 | -6.75920 | 18197 ft | 234 kts | 226° |
| 2026-05-07 20:39 | 33.75090 | -6.77279 | 17897 ft | 233 kts | 226° |
| 2026-05-07 20:39 | 33.73930 | -6.78629 | 17615 ft | 231 kts | 226° |
| 2026-05-07 20:39 | 33.72777 | -6.79972 | 17337 ft | 231 kts | 225° |
| 2026-05-07 20:40 | 33.71628 | -6.81312 | 17047 ft | 230 kts | 225° |
| 2026-05-07 20:40 | 33.70482 | -6.82647 | 16781 ft | 229 kts | 225° |
| 2026-05-07 20:40 | 33.69341 | -6.83976 | 16517 ft | 228 kts | 225° |
| 2026-05-07 20:40 | 33.68201 | -6.85302 | 16273 ft | 227 kts | 224° |
| 2026-05-07 20:41 | 33.67061 | -6.86611 | 16012 ft | 226 kts | 222° |
| 2026-05-07 20:41 | 33.65844 | -6.87809 | 15743 ft | 226 kts | 217° |
| 2026-05-07 20:41 | 33.64558 | -6.88848 | 15497 ft | 226 kts | 212° |
| 2026-05-07 20:41 | 33.63162 | -6.89767 | 15251 ft | 226 kts | 208° |
| 2026-05-07 20:42 | 33.61744 | -6.90510 | 15005 ft | 225 kts | 203° |
| 2026-05-07 20:42 | 33.60241 | -6.91128 | 14753 ft | 225 kts | 201° |
| 2026-05-07 20:42 | 33.58772 | -6.91709 | 14518 ft | 224 kts | 201° |
| 2026-05-07 20:42 | 33.57295 | -6.92294 | 14286 ft | 223 kts | 201° |
| 2026-05-07 20:43 | 33.55840 | -6.92872 | 14072 ft | 222 kts | 201° |
| 2026-05-07 20:43 | 33.54369 | -6.93456 | 13788 ft | 224 kts | 200° |
| 2026-05-07 20:43 | 33.52891 | -6.94044 | 13534 ft | 223 kts | 200° |
| 2026-05-07 20:43 | 33.51401 | -6.94636 | 13299 ft | 222 kts | 200° |
| 2026-05-07 20:44 | 33.49961 | -6.95206 | 13056 ft | 220 kts | 200° |
| 2026-05-07 20:44 | 33.48508 | -6.95781 | 12820 ft | 220 kts | 200° |
| 2026-05-07 20:44 | 33.47058 | -6.96355 | 12586 ft | 219 kts | 200° |
| 2026-05-07 20:44 | 33.45614 | -6.96922 | 12347 ft | 218 kts | 200° |
| 2026-05-07 20:45 | 33.44181 | -6.97487 | 12134 ft | 217 kts | 200° |
| 2026-05-07 20:45 | 33.42747 | -6.98054 | 11919 ft | 217 kts | 200° |
| 2026-05-07 20:45 | 33.41313 | -6.98620 | 11735 ft | 216 kts | 200° |
| 2026-05-07 20:45 | 33.39884 | -6.99183 | 11535 ft | 216 kts | 200° |
| 2026-05-07 20:46 | 33.38459 | -6.99744 | 11336 ft | 215 kts | 201° |
| 2026-05-07 20:46 | 33.37035 | -7.00306 | 11135 ft | 215 kts | 200° |
| 2026-05-07 20:46 | 33.35617 | -7.00866 | 10942 ft | 215 kts | 201° |
| 2026-05-07 20:46 | 33.34185 | -7.01430 | 10758 ft | 226 kts | 200° |
| 2026-05-07 20:47 | 33.32566 | -7.02072 | 10565 ft | 257 kts | 200° |
| 2026-05-07 20:47 | 33.30840 | -7.02754 | 10321 ft | 263 kts | 200° |
| 2026-05-07 20:47 | 33.29098 | -7.03437 | 10087 ft | 264 kts | 200° |
| 2026-05-07 20:47 | 33.27354 | -7.04121 | 9855 ft | 263 kts | 200° |
| 2026-05-07 20:48 | 33.25615 | -7.04803 | 9591 ft | 263 kts | 200° |
| 2026-05-07 20:48 | 33.23880 | -7.05484 | 9327 ft | 263 kts | 200° |
| 2026-05-07 20:48 | 33.22159 | -7.06208 | 9066 ft | 262 kts | 205° |
| 2026-05-07 20:48 | 33.20591 | -7.07301 | 8804 ft | 262 kts | 217° |
| 2026-05-07 20:49 | 33.19260 | -7.08779 | 8544 ft | 262 kts | 229° |
| 2026-05-07 20:49 | 33.18226 | -7.10578 | 8298 ft | 264 kts | 240° |
| 2026-05-07 20:49 | 33.17544 | -7.12614 | 8052 ft | 266 kts | 252° |
| 2026-05-07 20:49 | 33.17182 | -7.14797 | 7805 ft | 271 kts | 257° |
| 2026-05-07 20:50 | 33.16846 | -7.16991 | 7558 ft | 273 kts | 257° |
| 2026-05-07 20:50 | 33.16498 | -7.19222 | 7313 ft | 273 kts | 257° |
| 2026-05-07 20:50 | 33.16150 | -7.21450 | 7073 ft | 273 kts | 257° |
| 2026-05-07 20:50 | 33.15801 | -7.23681 | 6834 ft | 272 kts | 257° |
| 2026-05-07 20:51 | 33.15454 | -7.25891 | 6596 ft | 271 kts | 258° |
| 2026-05-07 20:51 | 33.15107 | -7.28101 | 6353 ft | 271 kts | 258° |
| 2026-05-07 20:51 | 33.14760 | -7.30317 | 6101 ft | 271 kts | 258° |
| 2026-05-07 20:51 | 33.14416 | -7.32517 | 5849 ft | 270 kts | 258° |
| 2026-05-07 20:52 | 33.14071 | -7.34724 | 5594 ft | 270 kts | 258° |
| 2026-05-07 20:52 | 33.13727 | -7.36927 | 5355 ft | 269 kts | 259° |
| 2026-05-07 20:52 | 33.13383 | -7.39116 | 5239 ft | 265 kts | 259° |
| 2026-05-07 20:52 | 33.13051 | -7.41224 | 5110 ft | 252 kts | 259° |
| 2026-05-07 20:53 | 33.12733 | -7.43229 | 4975 ft | 241 kts | 259° |
| 2026-05-07 20:53 | 33.12425 | -7.45175 | 4861 ft | 238 kts | 259° |
| 2026-05-07 20:53 | 33.12120 | -7.47114 | 4729 ft | 238 kts | 261° |
| 2026-05-07 20:53 | 33.12183 | -7.49053 | 4608 ft | 235 kts | 289° |
| 2026-05-07 20:54 | 33.13033 | -7.50685 | 4473 ft | 233 kts | 320° |
| 2026-05-07 20:54 | 33.14431 | -7.51601 | 4345 ft | 230 kts | 345° |
| 2026-05-07 20:54 | 33.15972 | -7.52120 | 4221 ft | 230 kts | 345° |
| 2026-05-07 20:54 | 33.17502 | -7.52637 | 4131 ft | 229 kts | 345° |
| 2026-05-07 20:55 | 33.19028 | -7.53156 | 3906 ft | 225 kts | 346° |
| 2026-05-07 20:55 | 33.20528 | -7.53667 | 3624 ft | 224 kts | 345° |
| 2026-05-07 20:55 | 33.22017 | -7.54176 | 3336 ft | 221 kts | 346° |
| 2026-05-07 20:55 | 33.23488 | -7.54678 | 3048 ft | 219 kts | 346° |
| 2026-05-07 20:56 | 33.24927 | -7.55169 | 2751 ft | 209 kts | 346° |
| 2026-05-07 20:56 | 33.26291 | -7.55636 | 2476 ft | 198 kts | 347° |
| 2026-05-07 20:56 | 33.27568 | -7.56073 | 2222 ft | 182 kts | 347° |
| 2026-05-07 20:56 | 33.28722 | -7.56467 | 1994 ft | 169 kts | 347° |
| 2026-05-07 20:57 | 33.29818 | -7.56842 | 1767 ft | 155 kts | 347° |
| 2026-05-07 20:57 | 33.30803 | -7.57178 | 1567 ft | 142 kts | 346° |
| 2026-05-07 20:57 | 33.31735 | -7.57497 | 1369 ft | 137 kts | 345° |
| 2026-05-07 20:57 | 33.32623 | -7.57800 | 1213 ft | 130 kts | 345° |
| 2026-05-07 20:58 | 33.33495 | -7.58107 | 1012 ft | 131 kts | 345° |
| 2026-05-07 20:58 | 33.34367 | -7.58404 | 860 ft | 131 kts | 347° |
| 2026-05-07 20:58 | 33.35244 | -7.58696 | 671 ft | 133 kts | 346° |
| 2026-05-07 20:58 | 33.36037 | -7.58966 | 651 ft | 90 kts | 344° |
| 2026-05-07 20:59 | 33.36415 | -7.59080 | 652 ft | 42 kts | 357° |
| 2026-05-07 20:59 | 33.36634 | -7.59041 | 653 ft | 24 kts | 14° |
| 2026-05-07 20:59 | 33.36750 | -7.59005 | 653 ft | 15 kts | 24° |
| 2026-05-07 20:59 | 33.36790 | -7.58890 | 652 ft | 17 kts | 75° |
| 2026-05-07 21:00 | 33.36824 | -7.58747 | 652 ft | 19 kts | 74° |
| 2026-05-07 21:00 | 33.36854 | -7.58620 | 654 ft | 14 kts | 75° |
| 2026-05-07 21:00 | 33.36882 | -7.58500 | 653 ft | 16 kts | 73° |
| 2026-05-07 21:00 | 33.36914 | -7.58364 | 654 ft | 18 kts | 74° |
| 2026-05-07 21:01 | 33.36950 | -7.58237 | 654 ft | 12 kts | 47° |
| 2026-05-07 21:01 | 33.37006 | -7.58239 | 653 ft | 5 kts | 344° |
| 2026-05-07 21:01 | 33.37025 | -7.58245 | 653 ft | 0 kts | 345° |
| 2026-05-07 21:01 | 33.37029 | -7.58246 | 653 ft | 3 kts | 345° |
| 2026-05-07 21:02 | 33.37070 | -7.58260 | 653 ft | 7 kts | 344° |
| 2026-05-07 21:02 | 33.37115 | -7.58275 | 653 ft | 5 kts | 345° |
| 2026-05-07 21:02 | 33.37129 | -7.58271 | 653 ft | 1 kts | 36° |
| 2026-05-07 21:02 | 33.37140 | -7.58252 | 654 ft | 5 kts | 58° |
| 2026-05-07 21:03 | 33.37154 | -7.58218 | 653 ft | 4 kts | 66° |
| 2026-05-07 21:03 | 33.37164 | -7.58192 | 653 ft | 2 kts | 65° |
| 2026-05-07 21:03 | 33.37169 | -7.58180 | 653 ft | 0 kts | 65° |